Time;durP1;ratioP1;P1;durP2;ratioP2;P2;SDS_P1;SDS_P2;PMS_P1;PMS_P2;Temp;Humidity;BMP_temperature;BMP_pressure;BME280_temperature;BME280_humidity;BME280_pressure;Samples;Min_cycle;Max_cycle;Signal;HPM_P1;HPM_P2
2022/04/02 00:02:24;;;;;;;;;6.75;6.75;;;;;5.48;77.00;101140.44;5001444;27;45335;-75
2022/04/02 00:04:50;;;;;;;;;10.50;7.75;;;;;5.46;77.78;101147.16;5026180;27;45361;-74
2022/04/02 00:07:15;;;;;;;;;10.00;6.00;;;;;5.50;78.50;101148.28;5015919;28;45725;-75
2022/04/02 00:09:42;;;;;;;;;5.75;4.25;;;;;5.43;77.94;101129.84;5011351;28;45694;-74
2022/04/02 00:12:08;;;;;;;;;5.50;5.50;;;;;5.50;77.21;101143.16;5040116;27;45419;-72
2022/04/02 00:14:34;;;;;;;;;7.50;7.50;;;;;5.54;75.91;101158.88;5065192;27;45371;-74
2022/04/02 00:16:59;;;;;;;;;8.00;7.00;;;;;5.53;75.36;101153.63;5002085;27;45319;-74
2022/04/02 00:19:25;;;;;;;;;5.00;5.00;;;;;5.49;74.69;101139.66;5106604;27;45300;-73
2022/04/02 00:21:51;;;;;;;;;12.50;7.50;;;;;5.42;75.30;101134.91;5060963;27;45444;-73
2022/04/02 00:24:16;;;;;;;;;4.00;4.00;;;;;5.51;74.58;101144.91;4995299;28;45269;-77
2022/04/02 00:26:42;;;;;;;;;8.00;3.00;;;;;5.51;74.02;101158.66;4976214;28;45526;-73
2022/04/02 00:29:10;;;;;;;;;9.25;6.75;;;;;5.49;73.89;101146.50;4994302;28;45601;-78
2022/04/02 00:31:36;;;;;;;;;5.75;5.75;;;;;5.51;72.73;101153.53;4977301;28;45976;-76
2022/04/02 00:34:02;;;;;;;;;6.50;4.00;;;;;5.51;71.45;101145.81;5060625;27;45516;-76
2022/04/02 00:36:28;;;;;;;;;5.50;3.75;;;;;5.48;70.61;101149.84;4991352;28;45553;-74
2022/04/02 00:38:54;;;;;;;;;6.50;3.75;;;;;5.31;70.65;101126.41;5010629;28;45809;-74
2022/04/02 00:41:19;;;;;;;;;11.50;4.25;;;;;5.40;70.71;101157.88;5009905;27;45382;-75
2022/04/02 00:43:57;;;;;;;;;4.50;4.50;;;;;5.37;70.37;101152.53;4996471;28;45493;-77
2022/04/02 00:46:22;;;;;;;;;6.25;4.75;;;;;5.32;70.03;101146.16;5012698;27;45591;-73
2022/04/02 00:48:50;;;;;;;;;6.50;5.00;;;;;5.33;70.11;101147.97;4999678;28;45859;-75
2022/04/02 00:51:18;;;;;;;;;4.25;3.00;;;;;5.33;68.91;101147.09;5003058;27;45974;-75
2022/04/02 00:53:47;;;;;;;;;5.75;2.75;;;;;5.25;69.60;101139.72;4984296;28;45403;-72
2022/04/02 00:56:14;;;;;;;;;5.50;3.00;;;;;5.27;69.24;101140.72;5010145;27;45556;-75
2022/04/02 00:58:39;;;;;;;;;3.00;2.50;;;;;5.18;68.90;101116.97;4992601;28;47718;-73
2022/04/02 01:01:08;;;;;;;;;3.25;2.00;;;;;5.20;67.81;101128.22;5010664;28;45527;-74
2022/04/02 01:03:35;;;;;;;;;2.00;2.00;;;;;5.21;67.76;101137.72;5011885;28;45410;-76
2022/04/02 01:06:01;;;;;;;;;5.25;3.00;;;;;5.14;67.89;101140.59;5005684;28;45466;-75
2022/04/02 01:08:27;;;;;;;;;5.50;3.00;;;;;5.18;67.98;101152.91;4976415;28;47606;-76
2022/04/02 01:10:56;;;;;;;;;5.75;4.75;;;;;5.16;67.95;101144.19;4977511;28;45421;-77
2022/04/02 01:13:22;;;;;;;;;5.25;5.00;;;;;5.13;67.55;101149.09;5012337;28;45749;-75
2022/04/02 01:15:49;;;;;;;;;2.00;2.00;;;;;5.01;67.66;101132.84;5001638;27;45335;-74
2022/04/02 01:18:14;;;;;;;;;6.75;5.00;;;;;5.10;67.98;101138.63;5002464;27;45576;-74
2022/04/02 01:20:40;;;;;;;;;3.00;3.00;;;;;5.08;67.47;101141.06;5008879;28;45326;-75
2022/04/02 01:23:08;;;;;;;;;4.25;3.00;;;;;5.02;67.95;101127.81;5010458;27;45291;-79
2022/04/02 01:25:35;;;;;;;;;2.00;1.00;;;;;5.02;67.18;101145.75;5027682;27;45743;-74
2022/04/02 01:28:02;;;;;;;;;5.50;3.00;;;;;5.03;67.28;101138.94;5066326;27;45574;-78
2022/04/02 01:30:29;;;;;;;;;3.00;3.00;;;;;5.04;67.50;101151.00;5005320;27;45827;-75
2022/04/02 01:32:55;;;;;;;;;4.50;3.00;;;;;5.00;66.98;101134.50;5001719;27;45473;-75
2022/04/02 01:35:21;;;;;;;;;3.00;3.00;;;;;4.98;66.93;101140.31;4998903;27;45574;-74
2022/04/02 01:37:49;;;;;;;;;4.50;4.50;;;;;4.86;66.62;101130.94;4996058;27;46565;-73
2022/04/02 01:40:14;;;;;;;;;2.00;2.00;;;;;4.92;67.25;101135.63;4994072;28;45886;-74
2022/04/02 01:42:40;;;;;;;;;2.75;2.00;;;;;4.95;67.57;101148.69;4996294;27;45354;-75
2022/04/02 01:45:06;;;;;;;;;5.25;5.00;;;;;4.93;68.12;101145.97;5009925;27;45338;-77
2022/04/02 01:47:32;;;;;;;;;5.00;3.00;;;;;4.96;67.77;101148.78;4997078;28;45431;-76
2022/04/02 01:49:57;;;;;;;;;4.50;4.50;;;;;4.98;68.06;101153.13;5010164;27;45588;-73
2022/04/02 01:52:23;;;;;;;;;5.00;4.00;;;;;4.93;67.46;101157.94;4972346;28;45454;-72
2022/04/02 01:54:49;;;;;;;;;3.00;3.00;;;;;4.83;67.65;101150.34;5006717;27;45543;-75
2022/04/02 01:57:16;;;;;;;;;5.00;3.00;;;;;4.83;68.00;101151.22;4993385;28;46138;-76
2022/04/02 01:59:44;;;;;;;;;3.00;2.00;;;;;4.83;67.55;101155.47;4993417;28;45649;-76
2022/04/02 02:02:10;;;;;;;;;3.25;2.00;;;;;4.72;67.53;101136.72;4993455;28;45338;-77
2022/04/02 02:04:37;;;;;;;;;3.00;2.00;;;;;4.79;67.53;101169.75;5007927;28;45406;-74
2022/04/02 02:07:04;;;;;;;;;5.50;2.00;;;;;4.73;68.45;101164.16;5010271;27;46182;-78
2022/04/02 02:09:30;;;;;;;;;6.75;5.00;;;;;4.78;67.96;101173.97;5017894;27;45406;-76
2022/04/02 02:11:56;;;;;;;;;3.75;3.75;;;;;4.74;68.54;101168.50;5098965;27;45272;-74
2022/04/02 02:14:22;;;;;;;;;5.00;3.00;;;;;4.77;68.51;101181.56;5101341;27;45264;-77
2022/04/02 02:16:48;;;;;;;;;6.00;4.00;;;;;4.79;68.35;101175.75;5097400;27;45374;-72
2022/04/02 02:19:14;;;;;;;;;2.50;2.00;;;;;4.75;67.60;101175.41;5094245;27;45828;-73
2022/04/02 02:21:40;;;;;;;;;0.00;0.00;;;;;4.74;68.58;101174.53;4993677;28;45684;-76
2022/04/02 02:24:06;;;;;;;;;5.00;5.00;;;;;4.77;68.50;101176.44;5059343;27;45622;-75
2022/04/02 02:26:32;;;;;;;;;3.25;2.25;;;;;4.79;68.38;101180.00;5096675;27;46073;-74
2022/04/02 02:28:58;;;;;;;;;6.00;5.00;;;;;4.74;68.58;101178.75;5103353;27;45333;-74
2022/04/02 02:31:24;;;;;;;;;6.75;5.00;;;;;4.76;68.35;101179.78;5006292;27;45413;-73
2022/04/02 02:36:34;;;;;;;;;5.00;5.00;;;;;4.62;68.98;101165.94;4992644;27;45423;-73
2022/04/02 02:39:00;;;;;;;;;6.50;5.75;;;;;4.61;69.14;101177.84;5048805;27;45306;-73
2022/04/02 02:41:26;;;;;;;;;3.00;3.00;;;;;4.61;69.32;101177.84;4992880;28;45291;-73
2022/04/02 02:43:52;;;;;;;;;4.25;3.25;;;;;4.69;69.24;101186.13;4992912;27;45351;-78
2022/04/02 02:46:18;;;;;;;;;3.75;3.75;;;;;4.65;68.97;101192.69;4992413;28;45426;-75
2022/04/02 02:48:45;;;;;;;;;6.00;6.00;;;;;4.64;69.61;101188.34;4997789;28;45505;-76
2022/04/02 02:51:12;;;;;;;;;7.50;5.50;;;;;4.60;69.87;101200.81;5012735;27;45421;-72
2022/04/02 02:53:38;;;;;;;;;3.00;3.00;;;;;4.46;70.18;101180.16;5008174;28;45469;-72
2022/04/02 02:56:04;;;;;;;;;6.50;4.50;;;;;4.61;70.11;101202.59;5015866;28;45924;-73
2022/04/02 02:58:30;;;;;;;;;4.50;4.25;;;;;4.60;69.57;101204.25;4999510;27;45947;-72
2022/04/02 03:00:56;;;;;;;;;6.00;5.00;;;;;4.51;70.18;101183.06;4995655;27;45426;-72
2022/04/02 03:03:22;;;;;;;;;5.50;5.00;;;;;4.49;70.09;101187.16;4995860;27;45688;-74
2022/04/02 03:05:51;;;;;;;;;3.00;3.00;;;;;4.55;70.36;101195.34;4995824;28;45905;-73
2022/04/02 03:08:16;;;;;;;;;4.75;4.25;;;;;4.60;70.08;101211.06;4995524;27;45926;-73
2022/04/02 03:10:44;;;;;;;;;7.75;5.00;;;;;4.59;70.11;101211.84;4993767;27;45516;-79
2022/04/02 03:13:10;;;;;;;;;5.00;4.50;;;;;4.60;69.94;101214.53;4989804;28;45490;-72
2022/04/02 03:15:38;;;;;;;;;6.00;5.00;;;;;4.43;70.45;101187.59;5002154;28;46113;-73
2022/04/02 03:18:08;;;;;;;;;3.50;3.50;;;;;4.54;70.25;101221.75;4995576;27;45442;-73
2022/04/02 03:20:35;;;;;;;;;8.50;6.00;;;;;4.51;70.62;101200.13;4976270;28;45402;-73
2022/04/02 03:23:02;;;;;;;;;8.00;3.25;;;;;4.54;70.19;101214.06;4976539;28;45545;-73
2022/04/02 03:25:29;;;;;;;;;8.00;5.00;;;;;4.50;70.54;101217.16;5056518;27;45334;-73
2022/04/02 03:27:55;;;;;;;;;7.00;6.25;;;;;4.43;70.67;101205.56;5100437;27;45316;-72
2022/04/02 03:30:22;;;;;;;;;5.00;5.00;;;;;4.47;70.98;101222.09;5095928;27;45407;-74
2022/04/02 03:32:50;;;;;;;;;6.00;6.00;;;;;4.44;71.09;101211.59;5010667;27;45325;-73
2022/04/02 03:35:17;;;;;;;;;3.00;3.00;;;;;4.45;71.23;101213.38;4995003;28;46006;-74
2022/04/02 03:37:46;;;;;;;;;10.25;4.50;;;;;4.45;71.37;101214.25;4995365;28;45261;-72
2022/04/02 03:40:17;;;;;;;;;7.00;6.00;;;;;4.51;71.20;101218.97;4995075;28;45452;-73
2022/04/02 03:42:44;;;;;;;;;7.75;7.75;;;;;4.46;71.52;101212.59;4995610;28;45422;-78
2022/04/02 03:45:12;;;;;;;;;6.75;5.75;;;;;4.49;71.54;101220.50;5004503;28;45402;-75
2022/04/02 03:47:38;;;;;;;;;8.00;6.00;;;;;4.36;71.54;101199.88;5015122;28;45410;-74
2022/04/02 03:50:05;;;;;;;;;5.00;5.00;;;;;4.45;72.04;101219.38;4997290;28;45393;-73
2022/04/02 03:52:30;;;;;;;;;6.00;4.75;;;;;4.44;71.32;101215.03;5015479;27;45554;-76
2022/04/02 03:54:56;;;;;;;;;10.75;7.25;;;;;4.42;72.06;101228.53;5004456;28;45468;-76
2022/04/02 03:57:21;;;;;;;;;6.50;6.00;;;;;4.34;71.96;101218.59;4995605;28;45584;-73
2022/04/02 03:59:47;;;;;;;;;6.00;6.00;;;;;4.35;72.18;101227.16;4976309;28;45414;-73
2022/04/02 04:02:13;;;;;;;;;7.25;7.25;;;;;4.41;72.53;101232.78;4995132;28;45305;-75
2022/04/02 04:04:39;;;;;;;;;8.25;6.25;;;;;4.39;71.94;101229.19;4997924;28;45751;-76
2022/04/02 04:07:06;;;;;;;;;7.75;5.75;;;;;4.38;72.79;101224.84;4996647;28;45393;-78
2022/04/02 04:09:32;;;;;;;;;6.75;5.00;;;;;4.40;72.17;101230.06;4995899;28;45482;-72
2022/04/02 04:11:58;;;;;;;;;9.00;5.75;;;;;4.41;72.16;101225.06;4995494;27;45338;-73
2022/04/02 04:14:24;;;;;;;;;5.75;5.00;;;;;4.36;72.71;101230.63;4977238;28;46054;-76
2022/04/02 04:16:51;;;;;;;;;7.00;6.25;;;;;4.38;72.74;101235.09;4995717;28;45500;-78
2022/04/02 04:19:17;;;;;;;;;8.00;6.00;;;;;4.35;72.63;101232.28;4999699;28;45177;-79
2022/04/02 04:21:43;;;;;;;;;7.25;6.25;;;;;4.36;72.52;101233.19;4995773;28;45567;-78
2022/04/02 04:24:10;;;;;;;;;5.75;5.00;;;;;4.38;72.58;101244.44;5008714;28;46035;-77
2022/04/02 04:26:36;;;;;;;;;3.50;3.50;;;;;4.37;73.11;101241.00;4994484;28;45373;-76
2022/04/02 04:29:03;;;;;;;;;7.00;5.00;;;;;4.35;72.72;101247.66;4995195;27;45340;-77
2022/04/02 04:31:29;;;;;;;;;6.00;4.50;;;;;4.39;73.34;101249.69;4995252;28;45638;-73
2022/04/02 04:33:54;;;;;;;;;5.25;5.25;;;;;4.30;72.89;101244.75;4994734;28;45890;-75
2022/04/02 04:36:22;;;;;;;;;6.00;5.00;;;;;4.31;72.93;101254.22;4994577;28;45361;-74
2022/04/02 04:38:48;;;;;;;;;6.25;4.50;;;;;4.34;73.79;101256.13;4995521;28;45221;-74
2022/04/02 04:41:14;;;;;;;;;6.75;5.75;;;;;4.37;73.76;101255.50;4996591;28;45626;-73
2022/04/02 04:43:41;;;;;;;;;3.00;2.00;;;;;4.36;73.21;101262.28;4996665;27;45414;-75
2022/04/02 04:46:08;;;;;;;;;7.25;5.50;;;;;4.26;73.52;101255.56;4997538;28;45434;-76
2022/04/02 04:48:37;;;;;;;;;5.00;5.00;;;;;4.33;73.01;101262.03;5019341;27;45398;-74
2022/04/02 04:51:04;;;;;;;;;10.25;6.25;;;;;4.25;73.06;101261.47;4977566;28;45394;-75
2022/04/02 04:53:31;;;;;;;;;10.25;6.00;;;;;4.21;73.25;101258.53;4994865;28;45555;-73
2022/04/02 04:55:57;;;;;;;;;6.00;6.00;;;;;4.23;73.69;101264.66;4994365;28;45453;-74
2022/04/02 04:58:22;;;;;;;;;7.00;6.00;;;;;4.32;73.61;101280.75;4994351;28;45393;-73
2022/04/02 05:00:48;;;;;;;;;5.75;5.50;;;;;4.31;74.53;101286.66;4994521;28;45379;-73
2022/04/02 05:03:14;;;;;;;;;8.75;6.00;;;;;4.38;74.23;101290.56;4993688;27;45979;-73
2022/04/02 05:05:40;;;;;;;;;6.75;6.00;;;;;4.32;73.39;101279.09;4997792;28;45358;-75
2022/04/02 05:08:09;;;;;;;;;5.50;5.50;;;;;4.45;73.09;101291.19;5002406;27;45564;-76
2022/04/02 05:10:35;;;;;;;;;6.25;6.00;;;;;4.47;72.96;101288.75;4994589;28;45518;-76
2022/04/02 05:13:02;;;;;;;;;6.00;6.00;;;;;4.51;73.44;101301.00;4993539;28;46155;-72
2022/04/02 05:15:28;;;;;;;;;7.75;6.50;;;;;4.55;72.98;101302.13;4994362;27;45399;-77
2022/04/02 05:17:54;;;;;;;;;7.00;6.00;;;;;4.53;72.30;101298.59;4995023;28;45449;-75
2022/04/02 05:20:20;;;;;;;;;8.25;5.75;;;;;4.47;72.17;101299.88;4995351;27;45496;-76
2022/04/02 05:22:46;;;;;;;;;8.00;8.00;;;;;4.44;72.11;101301.31;4995800;28;45415;-74
2022/04/02 05:25:12;;;;;;;;;5.50;5.50;;;;;4.43;72.26;101307.22;4994370;28;45272;-74
2022/04/02 05:27:37;;;;;;;;;6.75;6.75;;;;;4.46;72.21;101304.91;4976556;28;45321;-75
2022/04/02 05:30:04;;;;;;;;;6.00;6.00;;;;;4.40;72.18;101300.19;5074034;27;45373;-73
2022/04/02 05:32:33;;;;;;;;;6.00;6.00;;;;;4.44;71.60;101314.13;4993977;28;46050;-73
2022/04/02 05:34:58;;;;;;;;;11.75;9.75;;;;;4.47;72.01;101315.28;4993505;27;45553;-75
2022/04/02 05:37:25;;;;;;;;;6.75;6.75;;;;;4.49;72.27;101315.38;4993842;27;45314;-73
2022/04/02 05:39:52;;;;;;;;;7.50;6.50;;;;;4.48;71.86;101322.19;4994430;27;45504;-75
2022/04/02 05:42:17;;;;;;;;;7.00;6.50;;;;;4.45;72.03;101319.38;4993444;28;45478;-75
2022/04/02 05:44:43;;;;;;;;;7.75;7.75;;;;;4.39;71.74;101333.38;5010117;28;46051;-73
2022/04/02 05:47:09;;;;;;;;;7.50;6.00;;;;;4.30;72.33;101334.47;4999550;28;45378;-73
2022/04/02 05:49:36;;;;;;;;;7.75;7.00;;;;;4.26;73.03;101331.53;4994845;27;45517;-73
2022/04/02 05:52:03;;;;;;;;;12.00;6.75;;;;;4.21;73.14;101325.19;4989375;28;47043;-72
2022/04/02 05:54:29;;;;;;;;;8.25;7.00;;;;;4.25;73.50;101327.19;5002288;28;45478;-74
2022/04/02 05:56:55;;;;;;;;;10.00;6.00;;;;;4.20;73.17;101324.25;4995044;28;45443;-73
2022/04/02 05:59:21;;;;;;;;;7.00;7.00;;;;;4.26;73.77;101335.00;4977717;28;45525;-75
2022/04/02 06:01:48;;;;;;;;;5.00;5.00;;;;;4.33;73.47;101338.91;4991284;28;45517;-75
2022/04/02 06:04:14;;;;;;;;;5.50;5.50;;;;;4.32;72.95;101345.75;5000726;27;46351;-73
2022/04/02 06:06:40;;;;;;;;;5.25;5.25;;;;;4.27;73.25;101343.59;4995411;28;45577;-74
2022/04/02 06:09:06;;;;;;;;;10.00;7.00;;;;;4.21;73.18;101336.31;5010973;27;45670;-75
2022/04/02 06:11:32;;;;;;;;;6.25;5.00;;;;;4.21;74.13;101332.88;5046951;27;46178;-80
2022/04/02 06:13:58;;;;;;;;;7.25;6.00;;;;;4.27;73.82;101336.78;5078570;27;45461;-77
2022/04/02 06:16:25;;;;;;;;;5.75;5.50;;;;;4.27;73.42;101339.34;5022117;27;45504;-79
2022/04/02 06:18:51;;;;;;;;;5.00;3.00;;;;;4.42;74.06;101355.06;4999199;27;45536;-76
2022/04/02 06:21:18;;;;;;;;;5.25;5.25;;;;;4.40;73.58;101351.47;5004212;27;45510;-83
2022/04/02 06:23:44;;;;;;;;;5.50;5.50;;;;;4.42;74.04;101351.56;4978351;28;45368;-77
2022/04/02 06:26:10;;;;;;;;;6.00;6.00;;;;;4.50;73.63;101368.44;4994250;28;45422;-76
2022/04/02 06:28:40;;;;;;;;;8.00;6.25;;;;;4.51;73.97;101367.69;5002235;27;45315;-72
2022/04/02 06:31:06;;;;;;;;;5.00;3.00;;;;;4.52;74.28;101364.34;4994626;27;46329;-73
2022/04/02 06:33:35;;;;;;;;;7.25;6.00;;;;;4.54;74.56;101370.50;4998042;28;45229;-72
2022/04/02 06:36:01;;;;;;;;;9.50;6.00;;;;;4.54;74.32;101356.75;4981681;28;45575;-74
2022/04/02 06:38:27;;;;;;;;;6.00;5.50;;;;;4.62;74.16;101371.97;4995885;27;45613;-72
2022/04/02 06:40:56;;;;;;;;;6.00;6.00;;;;;4.67;74.48;101379.16;4995197;28;45506;-72
2022/04/02 06:43:21;;;;;;;;;10.25;7.00;;;;;4.62;74.67;101373.66;4995101;27;45874;-74
2022/04/02 06:45:47;;;;;;;;;6.50;6.00;;;;;4.71;74.48;101373.47;4995261;27;45189;-71
2022/04/02 06:48:15;;;;;;;;;3.00;3.00;;;;;4.72;74.00;101378.72;4994850;28;45567;-75
2022/04/02 06:50:42;;;;;;;;;7.75;5.00;;;;;4.76;75.12;101380.72;4996220;27;46320;-73
2022/04/02 06:53:08;;;;;;;;;6.75;6.00;;;;;4.77;74.79;101385.09;4995592;27;45438;-74
2022/04/02 06:55:33;;;;;;;;;7.00;6.50;;;;;4.74;74.67;101390.00;4980541;28;45284;-74
2022/04/02 06:58:00;;;;;;;;;6.25;5.75;;;;;4.72;74.70;101391.56;4999262;27;45493;-74
2022/04/02 07:00:26;;;;;;;;;6.00;5.00;;;;;4.74;74.68;101397.69;4995633;28;45354;-76
2022/04/02 07:02:52;;;;;;;;;5.50;5.00;;;;;4.73;74.89;101389.88;4978404;28;45807;-78
2022/04/02 07:05:18;;;;;;;;;5.75;4.75;;;;;4.71;75.26;101391.41;5017795;27;45247;-76
2022/04/02 07:07:49;;;;;;;;;5.00;3.25;;;;;4.89;76.05;101398.00;5100317;27;45518;-77
2022/04/02 07:10:15;;;;;;;;;5.00;5.00;;;;;4.95;75.20;101402.69;5100104;27;46351;-74
2022/04/02 07:12:41;;;;;;;;;6.75;6.00;;;;;4.93;74.03;101379.47;5104389;27;45335;-76
2022/04/02 07:15:08;;;;;;;;;6.25;5.50;;;;;5.04;73.94;101402.50;5100632;27;45279;-76
2022/04/02 07:17:34;;;;;;;;;6.00;5.00;;;;;5.02;72.65;101415.22;5100263;27;45390;-76
2022/04/02 07:20:01;;;;;;;;;3.25;2.75;;;;;4.99;71.92;101404.72;5034588;27;45522;-80
2022/04/02 07:22:27;;;;;;;;;3.75;2.50;;;;;5.01;71.26;101399.72;4992292;28;45552;-78
2022/04/02 07:24:55;;;;;;;;;5.00;3.00;;;;;4.82;70.77;101402.53;4995288;27;45536;-75
2022/04/02 07:27:25;;;;;;;;;6.00;6.00;;;;;4.79;71.50;101398.06;4992444;28;45526;-74
2022/04/02 07:29:56;;;;;;;;;4.75;4.25;;;;;4.87;71.51;101419.16;4977775;28;45478;-73
2022/04/02 07:32:22;;;;;;;;;3.25;3.00;;;;;4.90;73.50;101417.75;4977779;28;45261;-79
2022/04/02 07:34:49;;;;;;;;;5.75;4.00;;;;;4.98;71.16;101414.88;4995712;28;45299;-77
2022/04/02 07:37:31;;;;;;;;;6.50;5.50;;;;;4.98;70.48;101427.69;4994883;28;45460;-75
2022/04/02 07:40:16;;;;;;;;;5.75;5.00;;;;;4.98;70.64;101420.00;4994903;28;46236;-74
2022/04/02 07:43:20;;;;;;;;;5.00;5.00;;;;;5.01;70.74;101422.81;4985679;28;45229;-74
2022/04/02 07:45:55;;;;;;;;;5.25;3.00;;;;;5.05;71.36;101427.38;4984516;28;45354;-73
2022/04/02 07:48:24;;;;;;;;;7.00;7.00;;;;;5.06;70.96;101424.03;4996751;28;45556;-73
2022/04/02 07:50:51;;;;;;;;;6.00;6.00;;;;;5.03;71.95;101429.84;4979888;28;45379;-78
2022/04/02 07:53:22;;;;;;;;;6.25;5.00;;;;;5.07;71.20;101431.88;4986903;28;45528;-76
2022/04/02 07:55:57;;;;;;;;;5.50;5.50;;;;;5.06;71.04;101421.47;4997164;27;45496;-75
2022/04/02 07:58:28;;;;;;;;;6.75;5.75;;;;;5.15;70.74;101432.44;4994468;28;45381;-76
2022/04/02 08:00:55;;;;;;;;;6.00;6.00;;;;;5.11;70.82;101438.13;4994716;28;45352;-73
2022/04/02 08:03:23;;;;;;;;;6.00;4.25;;;;;5.10;69.72;101433.78;4994156;28;45972;-76
2022/04/02 08:05:49;;;;;;;;;1.75;1.75;;;;;5.04;69.43;101423.03;4977797;28;45448;-73
2022/04/02 08:08:15;;;;;;;;;7.75;7.00;;;;;5.11;69.51;101435.56;4994124;28;45351;-81
2022/04/02 08:10:45;;;;;;;;;6.50;5.25;;;;;5.16;71.02;101429.09;4994306;27;45391;-76
2022/04/02 08:13:14;;;;;;;;;6.00;5.50;;;;;5.29;70.85;101446.34;4991560;28;45297;-76
2022/04/02 08:15:40;;;;;;;;;6.00;4.00;;;;;5.34;70.45;101428.72;4994993;28;45372;-80
2022/04/02 08:18:07;;;;;;;;;4.75;4.75;;;;;5.45;70.14;101429.53;4994746;28;45337;-85
2022/04/02 08:20:33;;;;;;;;;3.00;3.00;;;;;5.63;69.59;101435.16;4994878;28;45402;-76
2022/04/02 08:23:01;;;;;;;;;4.75;4.25;;;;;5.71;63.96;101444.31;4994999;28;45941;-77
2022/04/02 08:25:27;;;;;;;;;5.00;5.00;;;;;5.60;63.00;101423.00;4994289;28;45398;-81
2022/04/02 08:28:13;;;;;;;;;6.25;4.75;;;;;5.69;63.08;101440.75;4977433;28;45379;-76
2022/04/02 08:30:57;;;;;;;;;5.75;4.50;;;;;5.69;62.06;101440.75;4994065;28;46144;-75
2022/04/02 08:33:54;;;;;;;;;7.00;2.00;;;;;5.73;60.74;101437.63;4994502;28;45235;-78
2022/04/02 08:36:19;;;;;;;;;2.00;1.00;;;;;5.71;59.58;101444.31;4999884;27;45542;-75
2022/04/02 08:38:59;;;;;;;;;3.00;3.00;;;;;5.72;61.42;101453.81;4997081;27;45499;-75
2022/04/02 08:41:43;;;;;;;;;3.75;3.75;;;;;5.80;60.45;101454.41;4993961;28;45327;-72
2022/04/02 08:44:30;;;;;;;;;4.25;4.00;;;;;5.89;60.88;101455.97;4994398;28;45363;-75
2022/04/02 08:47:33;;;;;;;;;3.75;3.75;;;;;6.02;60.77;101459.47;4993699;27;45383;-74
2022/04/02 08:50:10;;;;;;;;;5.00;5.00;;;;;6.09;60.49;101441.16;4994753;28;45520;-76
2022/04/02 08:52:56;;;;;;;;;6.50;2.50;;;;;6.15;58.80;101453.56;4993473;27;46609;-79
2022/04/02 08:55:38;;;;;;;;;3.00;3.00;;;;;6.10;57.09;101442.94;4993424;28;45868;-73
2022/04/02 08:58:22;;;;;;;;;2.75;1.25;;;;;6.17;55.16;101454.56;4994302;28;45501;-71
2022/04/02 09:01:05;;;;;;;;;6.00;3.00;;;;;6.16;55.40;101457.91;5091498;27;45522;-74
2022/04/02 09:03:55;;;;;;;;;2.00;2.00;;;;;6.15;56.39;101458.72;5078437;27;46966;-73
2022/04/02 09:06:21;;;;;;;;;3.75;3.00;;;;;6.19;56.93;101468.44;5098550;27;45855;-72
2022/04/02 09:09:05;;;;;;;;;5.50;3.75;;;;;6.24;56.37;101466.19;5057808;27;45351;-73
2022/04/02 09:12:12;;;;;;;;;4.00;3.00;;;;;6.25;56.50;101463.75;4993954;28;45372;-74
2022/04/02 09:15:06;;;;;;;;;3.75;3.75;;;;;6.32;57.39;101468.53;4994039;28;46244;-73
2022/04/02 09:17:49;;;;;;;;;7.00;7.00;;;;;6.38;56.52;101464.59;4994225;28;45288;-73
2022/04/02 09:20:21;;;;;;;;;6.00;3.50;;;;;6.40;54.68;101473.34;4993342;27;45375;-73
2022/04/02 09:23:06;;;;;;;;;2.50;2.50;;;;;6.45;55.16;101464.28;4994018;27;45612;-72
2022/04/02 09:26:18;;;;;;;;;3.50;3.50;;;;;6.44;54.34;101470.22;4993910;28;45440;-72
2022/04/02 09:29:15;;;;;;;;;2.25;2.25;;;;;6.47;55.45;101476.47;5000954;27;46015;-74
2022/04/02 09:32:18;;;;;;;;;4.00;4.00;;;;;6.59;54.71;101470.41;5072425;27;45389;-73
2022/04/02 09:35:15;;;;;;;;;3.00;3.00;;;;;6.61;52.26;101467.16;5097420;27;45631;-74
2022/04/02 09:38:20;;;;;;;;;7.00;3.00;;;;;6.66;51.77;101475.22;5096888;27;45436;-73
2022/04/02 09:40:48;;;;;;;;;3.00;3.00;;;;;6.61;53.18;101474.88;5078397;27;45275;-73
2022/04/02 09:43:24;;;;;;;;;3.00;2.75;;;;;6.61;54.63;101463.72;5081235;27;45384;-73
2022/04/02 09:46:27;;;;;;;;;6.00;6.00;;;;;6.73;54.82;101472.31;5000046;27;45384;-74
2022/04/02 09:49:22;;;;;;;;;6.00;4.25;;;;;6.84;52.89;101467.03;4995086;27;45392;-76
2022/04/02 09:51:57;;;;;;;;;2.00;2.00;;;;;6.92;52.13;101468.44;5008226;27;46039;-74
2022/04/02 09:54:41;;;;;;;;;3.50;3.00;;;;;7.09;48.65;101479.94;5009014;27;45359;-78
2022/04/02 09:57:17;;;;;;;;;4.00;4.00;;;;;7.12;48.58;101463.00;4993096;28;45646;-75
2022/04/02 09:59:46;;;;;;;;;5.50;3.00;;;;;7.18;48.51;101469.38;4990646;28;45382;-72
2022/04/02 10:02:32;;;;;;;;;4.75;3.50;;;;;7.20;49.46;101462.63;4992398;28;45341;-72
2022/04/02 10:05:07;;;;;;;;;3.25;3.25;;;;;7.28;49.42;101467.53;4992493;28;45504;-72
2022/04/02 10:08:02;;;;;;;;;8.00;6.00;;;;;7.27;50.13;101465.75;4993036;28;45323;-71
2022/04/02 10:10:29;;;;;;;;;6.50;3.75;;;;;7.25;48.69;101467.31;4992226;27;45651;-71
2022/04/02 10:12:56;;;;;;;;;7.00;3.75;;;;;7.19;47.01;101473.72;4992240;28;45339;-74
2022/04/02 10:15:25;;;;;;;;;2.00;2.00;;;;;7.10;45.88;101469.72;4992515;28;45443;-74
2022/04/02 10:17:53;;;;;;;;;1.75;1.75;;;;;7.11;45.09;101475.78;4982517;28;45543;-75
2022/04/02 10:20:23;;;;;;;;;5.50;3.00;;;;;7.13;46.69;101484.47;4992965;27;46074;-76
2022/04/02 10:23:02;;;;;;;;;2.25;2.25;;;;;7.13;46.64;101459.66;4995446;28;45919;-78
2022/04/02 10:25:29;;;;;;;;;10.75;8.75;;;;;7.21;47.22;101460.19;4996604;28;45432;-80
2022/04/02 10:27:55;;;;;;;;;7.50;7.25;;;;;7.31;46.03;101471.09;4979219;28;44861;-89
2022/04/02 10:30:25;;;;;;;;;6.00;6.00;;;;;7.26;46.83;101447.63;4981860;28;46913;-80
2022/04/02 10:35:44;;;;;;;;;3.50;3.50;;;;;7.56;46.02;101481.41;4993555;28;45384;-76
2022/04/02 10:38:15;;;;;;;;;7.50;4.00;;;;;7.56;47.01;101471.09;4996463;28;45393;-76
2022/04/02 10:40:51;;;;;;;;;3.00;3.00;;;;;7.68;46.14;101478.75;4992472;28;47702;-79
2022/04/02 10:43:31;;;;;;;;;6.00;3.25;;;;;7.70;45.56;101477.16;5042192;27;45380;-77
2022/04/02 10:45:58;;;;;;;;;5.50;4.00;;;;;7.52;45.01;101436.50;5001294;27;45439;-82
2022/04/02 10:48:35;;;;;;;;;3.75;3.75;;;;;7.61;45.84;101458.50;4994256;28;45534;-81
2022/04/02 10:51:02;;;;;;;;;3.75;3.00;;;;;7.65;44.44;101458.81;4989843;28;46842;-81
2022/04/02 10:53:31;;;;;;;;;2.00;2.00;;;;;7.63;43.31;101467.25;5018137;27;45852;-84
2022/04/02 10:56:00;;;;;;;;;3.00;2.75;;;;;7.45;42.74;101442.00;5004994;28;45252;-83
2022/04/02 10:58:32;;;;;;;;;3.50;3.00;;;;;7.56;43.45;101466.81;4998702;28;45209;-82
2022/04/02 11:01:03;;;;;;;;;4.50;4.50;;;;;7.58;43.57;101460.09;4994969;28;45354;-73
2022/04/02 11:03:36;;;;;;;;;8.00;7.00;;;;;7.49;42.73;101438.84;4991309;28;45964;-72
2022/04/02 11:06:02;;;;;;;;;6.75;4.50;;;;;7.70;43.03;101446.25;4992811;28;45435;-81
2022/04/02 11:08:31;;;;;;;;;3.00;3.00;;;;;7.74;43.31;101454.28;5002087;28;45321;-79
2022/04/02 11:11:23;;;;;;;;;5.00;3.00;;;;;7.91;44.31;101451.94;4995479;28;45306;-77
2022/04/02 11:14:01;;;;;;;;;7.00;6.00;;;;;7.91;43.01;101464.84;5028910;28;45473;-73
2022/04/02 11:16:40;;;;;;;;;4.00;3.25;;;;;7.85;42.90;101454.09;4975764;28;45280;-78
2022/04/02 11:22:08;;;;;;;;;5.25;3.00;;;;;7.90;41.61;101442.41;4995487;28;45908;-74
2022/04/02 11:24:50;;;;;;;;;4.00;3.50;;;;;7.91;41.38;101441.63;4998215;28;45716;-77
2022/04/02 11:27:19;;;;;;;;;4.25;3.00;;;;;8.07;40.39;101446.09;4995382;27;45763;-74
2022/04/02 11:29:51;;;;;;;;;5.00;3.00;;;;;8.13;41.49;101437.88;4980319;28;45550;-72
2022/04/02 11:32:27;;;;;;;;;4.50;4.00;;;;;8.33;40.27;101457.19;4994705;27;45363;-73
2022/04/02 11:34:53;;;;;;;;;3.75;3.00;;;;;8.39;40.73;101444.69;4999878;27;45923;-75
2022/04/02 11:37:30;;;;;;;;;3.00;3.00;;;;;8.52;40.79;101444.72;5006394;28;45347;-77
2022/04/02 11:40:04;;;;;;;;;3.00;2.00;;;;;8.43;41.23;101417.41;4978324;28;45307;-77
2022/04/02 11:42:34;;;;;;;;;3.00;3.00;;;;;8.51;40.07;101439.44;4961934;28;47699;-76
2022/04/02 11:45:07;;;;;;;;;4.00;2.75;;;;;8.71;39.83;101450.13;4996590;28;45901;-78
2022/04/02 11:47:37;;;;;;;;;3.00;3.00;;;;;8.87;39.14;101451.97;4977641;28;45464;-77
2022/04/02 11:50:09;;;;;;;;;2.00;2.00;;;;;8.84;38.64;101421.69;4995822;28;45253;-80
2022/04/02 11:53:11;;;;;;;;;5.25;3.00;;;;;9.21;39.08;101415.28;4995193;28;45346;-78
2022/04/02 11:55:38;;;;;;;;;4.00;3.00;;;;;9.42;39.27;101445.00;4935942;28;45485;-84
2022/04/02 11:58:12;;;;;;;;;2.75;2.25;;;;;9.49;38.19;101448.84;4974895;27;45553;-79